Time;durP1;ratioP1;P1;durP2;ratioP2;P2;SDS_P1;SDS_P2;PMS_P1;PMS_P2;Temp;Humidity;BMP_temperature;BMP_pressure;BME280_temperature;BME280_humidity;BME280_pressure;Samples;Min_cycle;Max_cycle;Signal;HPM_P1;HPM_P2
2023/09/11 00:00:39;;;;;;;7.43;4.88;;;25.40;99.90;;;;;;4135417;28;20029;-69
2023/09/11 00:02:39;;;;;;;9.15;5.00;;;25.40;99.90;;;;;;4144292;28;20018;-69
2023/09/11 00:04:40;;;;;;;6.70;4.47;;;25.40;99.90;;;;;;4136213;28;20407;-71
2023/09/11 00:06:40;;;;;;;6.97;5.18;;;25.40;99.90;;;;;;4131089;28;21752;-69
2023/09/11 00:08:44;;;;;;;6.70;4.95;;;25.40;99.90;;;;;;4146072;28;20117;-68
2023/09/11 00:10:44;;;;;;;7.00;5.03;;;25.40;99.90;;;;;;4134090;28;20096;-67
2023/09/11 00:12:45;;;;;;;6.30;4.40;;;25.30;99.90;;;;;;4149158;28;20034;-67
2023/09/11 00:14:45;;;;;;;9.73;4.93;;;25.30;99.90;;;;;;4145171;28;20498;-67
2023/09/11 00:16:46;;;;;;;5.65;4.60;;;25.30;99.90;;;;;;4143475;28;20041;-66
2023/09/11 00:18:47;;;;;;;6.15;4.93;;;25.30;99.90;;;;;;4143095;28;20042;-67
2023/09/11 00:20:47;;;;;;;8.43;4.57;;;25.20;99.90;;;;;;4135132;28;20616;-67
2023/09/11 00:22:48;;;;;;;7.65;5.32;;;25.20;99.90;;;;;;4144652;28;20120;-67
2023/09/11 00:24:49;;;;;;;8.20;5.05;;;25.10;99.90;;;;;;4158426;28;20044;-67
2023/09/11 00:26:50;;;;;;;7.15;5.10;;;25.20;99.90;;;;;;4146531;28;20034;-67
2023/09/11 00:28:50;;;;;;;6.22;4.95;;;25.10;99.90;;;;;;4140674;28;20034;-67
2023/09/11 00:30:51;;;;;;;14.70;4.78;;;25.10;99.90;;;;;;4133087;28;20395;-66
2023/09/11 00:32:52;;;;;;;6.32;5.05;;;25.10;99.90;;;;;;4141399;28;20038;-72
2023/09/11 00:34:52;;;;;;;7.35;5.32;;;25.00;99.90;;;;;;4146303;28;20801;-67
2023/09/11 00:36:53;;;;;;;6.93;5.13;;;25.10;99.90;;;;;;4138284;28;20042;-67
2023/09/11 00:38:53;;;;;;;8.20;4.95;;;25.00;99.90;;;;;;4143736;28;20077;-68
2023/09/11 00:40:54;;;;;;;7.78;4.95;;;25.00;99.90;;;;;;4129859;28;20325;-67
2023/09/11 00:42:54;;;;;;;10.13;5.35;;;25.00;99.90;;;;;;4142615;28;20447;-67
2023/09/11 00:44:55;;;;;;;8.57;5.80;;;24.90;99.90;;;;;;4143189;28;20100;-69
2023/09/11 00:46:56;;;;;;;7.72;5.70;;;24.90;99.90;;;;;;4140634;28;20089;-68
2023/09/11 00:48:58;;;;;;;7.35;5.65;;;24.90;99.90;;;;;;4134607;28;20061;-68
2023/09/11 00:51:00;;;;;;;10.40;5.60;;;24.90;99.90;;;;;;4134424;28;20679;-68
2023/09/11 00:53:03;;;;;;;6.88;5.50;;;24.80;99.90;;;;;;4128750;28;20608;-67
2023/09/11 00:55:05;;;;;;;9.65;5.18;;;24.80;99.90;;;;;;4142309;28;20495;-68
2023/09/11 00:57:06;;;;;;;8.43;4.97;;;24.80;99.90;;;;;;4144707;28;20119;-66
2023/09/11 00:59:08;;;;;;;5.60;4.93;;;24.70;99.90;;;;;;4140739;28;20095;-67
2023/09/11 01:01:13;;;;;;;8.20;4.97;;;24.80;99.90;;;;;;4141757;28;20038;-67
2023/09/11 01:03:13;;;;;;;7.68;5.13;;;24.70;99.90;;;;;;4142490;28;20552;-67
2023/09/11 01:05:14;;;;;;;6.78;4.78;;;24.70;99.90;;;;;;4159820;28;20034;-67
2023/09/11 01:07:17;;;;;;;6.65;4.85;;;24.70;99.90;;;;;;4157584;28;20082;-66
2023/09/11 01:09:18;;;;;;;7.55;5.10;;;24.60;99.90;;;;;;4145128;28;20387;-70
2023/09/11 01:11:20;;;;;;;7.13;5.18;;;24.70;99.90;;;;;;4142664;28;20030;-68
2023/09/11 01:13:21;;;;;;;5.90;4.97;;;24.70;99.90;;;;;;4145683;28;20031;-67
2023/09/11 01:15:26;;;;;;;8.38;5.57;;;24.70;99.90;;;;;;4129816;28;20042;-67
2023/09/11 01:17:41;;;;;;;9.10;5.25;;;24.70;99.90;;;;;;4149996;28;20038;-67
2023/09/11 01:19:54;;;;;;;8.95;5.47;;;24.70;99.90;;;;;;4142685;28;20044;-73
2023/09/11 01:22:22;;;;;;;8.27;5.43;;;24.60;99.90;;;;;;4148816;28;20073;-67
2023/09/11 01:25:01;;;;;;;11.48;5.10;;;24.60;99.90;;;;;;4139774;28;20040;-67
2023/09/11 01:27:35;;;;;;;6.60;5.35;;;24.60;99.90;;;;;;4132949;28;20037;-66
2023/09/11 01:29:40;;;;;;;12.05;5.78;;;24.50;99.90;;;;;;4137608;28;20023;-68
2023/09/11 01:31:44;;;;;;;9.02;5.60;;;24.50;99.90;;;;;;4156793;28;20437;-67
2023/09/11 01:33:44;;;;;;;7.93;5.63;;;24.50;99.90;;;;;;4151068;28;20042;-67
2023/09/11 01:35:45;;;;;;;9.43;5.15;;;24.50;99.90;;;;;;4141336;28;20555;-67
2023/09/11 01:37:46;;;;;;;10.13;5.90;;;24.50;99.90;;;;;;4151457;28;20042;-66
2023/09/11 01:39:47;;;;;;;8.07;5.90;;;24.50;99.90;;;;;;4142127;28;20069;-67
2023/09/11 01:41:49;;;;;;;10.80;5.73;;;24.40;99.90;;;;;;4142331;28;20033;-66
2023/09/11 01:43:51;;;;;;;8.77;5.70;;;24.40;99.90;;;;;;4139660;28;20778;-67
2023/09/11 01:45:52;;;;;;;7.65;5.38;;;24.50;99.90;;;;;;4115325;28;20069;-67
2023/09/11 01:47:53;;;;;;;7.90;5.30;;;24.40;99.90;;;;;;4125554;28;20425;-67
2023/09/11 01:49:56;;;;;;;11.38;5.25;;;24.40;99.90;;;;;;4130511;28;20757;-67
2023/09/11 01:51:57;;;;;;;;;;;24.40;99.90;;;;;;4130633;28;20054;-67
2023/09/11 01:53:58;;;;;;;7.70;5.13;;;24.40;99.90;;;;;;4144758;28;19962;-67
2023/09/11 01:55:59;;;;;;;9.70;6.05;;;24.40;99.90;;;;;;4149181;28;20051;-67
2023/09/11 01:58:00;;;;;;;13.18;5.70;;;24.40;99.90;;;;;;4155033;28;20503;-67
2023/09/11 02:00:01;;;;;;;9.95;5.72;;;24.40;99.90;;;;;;4139079;28;20061;-67
2023/09/11 02:02:04;;;;;;;9.93;6.05;;;24.40;99.90;;;;;;4155034;28;20102;-66
2023/09/11 02:04:05;;;;;;;10.43;5.30;;;24.40;99.90;;;;;;4157743;28;20045;-67
2023/09/11 02:06:05;;;;;;;10.07;5.78;;;24.40;99.90;;;;;;4142528;28;20042;-67
2023/09/11 02:08:06;;;;;;;7.70;5.55;;;24.40;99.90;;;;;;4142388;28;20122;-66
2023/09/11 02:10:07;;;;;;;8.55;5.70;;;24.40;99.90;;;;;;4130052;28;20034;-68
2023/09/11 02:12:08;;;;;;;9.60;6.38;;;24.40;99.90;;;;;;4129536;28;20030;-67
2023/09/11 02:14:08;;;;;;;9.52;6.38;;;24.40;99.90;;;;;;4147883;28;20053;-67
2023/09/11 02:16:09;;;;;;;7.03;5.20;;;24.40;99.90;;;;;;4140027;28;20503;-67
2023/09/11 02:18:09;;;;;;;6.75;5.00;;;24.40;99.90;;;;;;4141796;28;20034;-67
2023/09/11 02:20:10;;;;;;;7.03;5.38;;;24.40;99.90;;;;;;4151709;28;20450;-68
2023/09/11 02:22:11;;;;;;;9.15;5.32;;;24.40;99.90;;;;;;4142592;28;20112;-66
2023/09/11 02:24:11;;;;;;;8.10;5.53;;;24.40;99.90;;;;;;4148966;28;20068;-67
2023/09/11 02:26:12;;;;;;;7.63;6.15;;;24.40;99.90;;;;;;4142675;28;20395;-67
2023/09/11 02:28:13;;;;;;;9.90;6.43;;;24.40;99.90;;;;;;4142233;28;20052;-67
2023/09/11 02:30:13;;;;;;;9.20;5.65;;;24.30;99.90;;;;;;4139367;28;20040;-69
2023/09/11 02:32:14;;;;;;;7.30;5.38;;;24.40;99.90;;;;;;4159155;28;20021;-70
2023/09/11 02:34:14;;;;;;;7.28;5.47;;;24.30;99.90;;;;;;4148797;28;20081;-70
2023/09/11 02:36:16;;;;;;;7.53;5.82;;;24.30;99.90;;;;;;4135633;28;20034;-69
2023/09/11 02:38:16;;;;;;;7.10;5.35;;;24.30;99.90;;;;;;4148374;28;20109;-70
2023/09/11 02:40:17;;;;;;;9.02;5.70;;;24.30;99.90;;;;;;4141024;28;20034;-70
2023/09/11 02:42:17;;;;;;;8.00;5.78;;;24.30;99.90;;;;;;4141311;28;20054;-70
2023/09/11 02:44:18;;;;;;;8.50;5.65;;;24.30;99.90;;;;;;4144186;28;20034;-69
2023/09/11 02:46:18;;;;;;;7.90;5.85;;;24.30;99.90;;;;;;4133851;28;20031;-70
2023/09/11 02:48:20;;;;;;;9.20;6.28;;;24.40;99.90;;;;;;4127031;28;20125;-69
2023/09/11 02:50:23;;;;;;;8.75;5.53;;;24.30;99.90;;;;;;4141354;28;20083;-67
2023/09/11 02:52:23;;;;;;;;;;;24.30;99.90;;;;;;4142856;28;20026;-69
2023/09/11 02:54:24;;;;;;;9.15;5.78;;;24.30;99.90;;;;;;4152528;28;19913;-66
2023/09/11 02:56:24;;;;;;;7.82;5.90;;;24.30;99.90;;;;;;4148066;28;20056;-67
2023/09/11 02:58:25;;;;;;;8.95;6.07;;;24.30;99.90;;;;;;4142674;28;20026;-66
2023/09/11 03:00:26;;;;;;;10.45;6.30;;;24.30;99.90;;;;;;4141212;28;20087;-67
2023/09/11 03:02:27;;;;;;;10.88;6.47;;;24.30;99.90;;;;;;4143774;28;20037;-66
2023/09/11 03:04:28;;;;;;;9.13;5.70;;;24.30;99.90;;;;;;4143275;28;20487;-67
2023/09/11 03:06:29;;;;;;;11.15;6.43;;;24.30;99.90;;;;;;4140951;28;20041;-67
2023/09/11 03:08:30;;;;;;;9.68;6.38;;;24.20;99.90;;;;;;4143351;28;20387;-67
2023/09/11 03:10:32;;;;;;;8.73;6.22;;;24.20;99.90;;;;;;4137074;28;20038;-66
2023/09/11 03:12:33;;;;;;;8.10;5.85;;;24.20;99.90;;;;;;4139917;28;20124;-67
2023/09/11 03:14:33;;;;;;;6.38;5.53;;;24.20;99.90;;;;;;4141180;28;20041;-67
2023/09/11 03:16:34;;;;;;;12.00;5.85;;;24.20;99.90;;;;;;4142056;28;20418;-68
2023/09/11 03:18:35;;;;;;;8.85;5.60;;;24.10;99.90;;;;;;4145560;28;20501;-66
2023/09/11 03:20:36;;;;;;;10.25;5.82;;;24.10;99.90;;;;;;4140631;28;20125;-69
2023/09/11 03:22:36;;;;;;;10.43;5.68;;;24.10;99.90;;;;;;4142245;28;20507;-66
2023/09/11 03:24:37;;;;;;;7.20;5.68;;;24.10;99.90;;;;;;4145520;28;20148;-69
2023/09/11 03:26:37;;;;;;;9.13;5.95;;;24.10;99.90;;;;;;4144998;28;20407;-66
2023/09/11 03:28:38;;;;;;;9.13;6.18;;;24.10;99.90;;;;;;4143682;28;20022;-70
2023/09/11 03:30:38;;;;;;;8.05;5.45;;;24.10;99.90;;;;;;4128173;28;20034;-66
2023/09/11 03:32:39;;;;;;;9.75;5.72;;;24.10;99.90;;;;;;4139917;28;20125;-67
2023/09/11 03:34:40;;;;;;;7.80;5.30;;;24.10;99.90;;;;;;4146294;28;20053;-67
2023/09/11 03:36:40;;;;;;;8.98;6.00;;;24.10;99.90;;;;;;4145606;28;20034;-67
2023/09/11 03:38:41;;;;;;;9.05;6.13;;;24.10;99.90;;;;;;4157324;28;20160;-69
2023/09/11 03:40:45;;;;;;;7.93;5.32;;;24.10;99.90;;;;;;4129359;28;20034;-69
2023/09/11 03:42:46;;;;;;;10.35;5.93;;;24.10;99.90;;;;;;4143723;28;20030;-66
2023/09/11 03:44:47;;;;;;;8.05;6.00;;;24.10;99.90;;;;;;4144629;28;20125;-66
2023/09/11 03:46:47;;;;;;;8.75;6.32;;;24.10;99.90;;;;;;4144580;28;20026;-66
2023/09/11 03:48:48;;;;;;;6.85;5.90;;;24.10;99.90;;;;;;4143970;28;20438;-67
2023/09/11 03:50:48;;;;;;;10.52;6.40;;;24.00;99.90;;;;;;4138061;28;20052;-67
2023/09/11 03:52:50;;;;;;;8.93;6.47;;;24.00;99.90;;;;;;4150886;28;20394;-67
2023/09/11 03:54:51;;;;;;;8.73;6.35;;;24.00;99.90;;;;;;4146125;28;20037;-67
2023/09/11 03:56:51;;;;;;;8.35;6.20;;;24.00;99.90;;;;;;4144297;28;20038;-67
2023/09/11 03:58:52;;;;;;;10.10;6.60;;;24.00;99.90;;;;;;4141935;28;20507;-70
2023/09/11 04:00:54;;;;;;;8.77;6.13;;;24.00;99.90;;;;;;4140663;28;20046;-67
2023/09/11 04:02:54;;;;;;;8.23;5.93;;;24.00;99.90;;;;;;4145296;28;20045;-70
2023/09/11 04:04:55;;;;;;;12.02;6.82;;;24.00;99.90;;;;;;4146060;28;20026;-66
2023/09/11 04:06:56;;;;;;;8.70;6.10;;;24.00;99.90;;;;;;4142412;28;20046;-66
2023/09/11 04:08:57;;;;;;;8.02;5.88;;;24.00;99.90;;;;;;4142219;28;20036;-69
2023/09/11 04:10:57;;;;;;;10.63;6.72;;;23.90;99.90;;;;;;4128900;28;20034;-69
2023/09/11 04:12:58;;;;;;;9.88;6.68;;;23.90;99.90;;;;;;4142850;28;20064;-69
2023/09/11 04:14:58;;;;;;;9.98;6.47;;;23.90;99.90;;;;;;4144814;28;20407;-69
2023/09/11 04:16:59;;;;;;;10.23;6.85;;;23.90;99.90;;;;;;4139403;28;20038;-69
2023/09/11 04:18:59;;;;;;;11.77;6.45;;;23.90;99.90;;;;;;4141942;28;22261;-69
2023/09/11 04:21:02;;;;;;;9.57;6.90;;;23.90;99.90;;;;;;4144713;28;20506;-69
2023/09/11 04:23:03;;;;;;;10.23;6.53;;;23.80;99.90;;;;;;4142519;28;20044;-69
2023/09/11 04:25:04;;;;;;;11.93;6.67;;;23.80;99.90;;;;;;4143386;28;20053;-70
2023/09/11 04:27:05;;;;;;;9.43;7.00;;;23.80;99.90;;;;;;4143310;28;20042;-69
2023/09/11 04:29:07;;;;;;;12.57;7.32;;;23.80;99.90;;;;;;4134979;28;20117;-69
2023/09/11 04:31:08;;;;;;;14.13;7.90;;;23.80;99.90;;;;;;4130112;28;20030;-70
2023/09/11 04:33:09;;;;;;;9.05;6.47;;;23.80;99.90;;;;;;4143126;28;20046;-70
2023/09/11 04:35:09;;;;;;;12.88;8.38;;;23.70;99.90;;;;;;4144064;28;20061;-69
2023/09/11 04:37:10;;;;;;;9.10;6.88;;;23.70;99.90;;;;;;4151784;28;20499;-70
2023/09/11 04:39:14;;;;;;;12.27;7.85;;;23.70;99.90;;;;;;4138595;28;20085;-70
2023/09/11 04:41:16;;;;;;;9.63;6.45;;;23.60;99.90;;;;;;4128389;28;20129;-69
2023/09/11 04:43:16;;;;;;;13.95;7.85;;;23.60;99.90;;;;;;4141325;28;20045;-70
2023/09/11 04:45:17;;;;;;;11.27;7.63;;;23.60;99.90;;;;;;4144343;28;20026;-69
2023/09/11 04:47:17;;;;;;;14.02;7.75;;;23.50;99.90;;;;;;4144381;28;20038;-70
2023/09/11 04:49:18;;;;;;;11.32;8.13;;;23.50;99.90;;;;;;4138931;28;20036;-71
2023/09/11 04:51:19;;;;;;;9.65;7.25;;;23.50;99.90;;;;;;4157896;28;20034;-70
2023/09/11 04:53:20;;;;;;;16.90;8.05;;;23.40;99.90;;;;;;4157312;28;20041;-69
2023/09/11 04:55:20;;;;;;;11.90;7.55;;;23.40;99.90;;;;;;4144078;28;20168;-69
2023/09/11 04:57:21;;;;;;;13.73;7.07;;;23.30;99.90;;;;;;4143894;28;20442;-69
2023/09/11 04:59:21;;;;;;;12.65;7.45;;;23.30;99.90;;;;;;4136906;28;20081;-69
2023/09/11 05:01:22;;;;;;;11.23;7.65;;;23.30;99.90;;;;;;4127985;28;20065;-69
2023/09/11 05:03:23;;;;;;;8.98;6.63;;;23.30;99.90;;;;;;4140546;28;20042;-69
2023/09/11 05:05:25;;;;;;;10.40;7.47;;;23.20;99.90;;;;;;4148583;28;20030;-69
2023/09/11 05:07:25;;;;;;;12.68;7.15;;;23.20;99.90;;;;;;4157903;28;20108;-67
2023/09/11 05:09:26;;;;;;;10.90;7.05;;;23.20;99.90;;;;;;4134983;28;20031;-66
2023/09/11 05:11:27;;;;;;;11.43;7.68;;;23.20;99.90;;;;;;4137732;28;20364;-67
2023/09/11 05:13:28;;;;;;;9.02;6.72;;;23.10;99.90;;;;;;4138678;28;20125;-67
2023/09/11 05:15:28;;;;;;;12.52;7.25;;;23.10;99.90;;;;;;4141826;28;20041;-66
2023/09/11 05:17:29;;;;;;;11.55;7.82;;;23.10;99.90;;;;;;4140003;28;20109;-67
2023/09/11 05:19:29;;;;;;;10.48;7.05;;;23.10;99.90;;;;;;4141883;28;20037;-68
2023/09/11 05:21:32;;;;;;;9.38;6.13;;;23.10;99.90;;;;;;4135459;28;20073;-68
2023/09/11 05:23:33;;;;;;;15.77;7.75;;;23.10;99.90;;;;;;4134773;28;20057;-69
2023/09/11 05:25:34;;;;;;;10.85;7.30;;;23.10;99.90;;;;;;4141028;28;20387;-68
2023/09/11 05:27:35;;;;;;;11.05;6.70;;;23.00;99.90;;;;;;4142773;28;20496;-68
2023/09/11 05:29:35;;;;;;;11.82;6.72;;;23.00;99.90;;;;;;4137623;28;20038;-66
2023/09/11 05:31:36;;;;;;;12.43;7.13;;;23.00;99.90;;;;;;4150775;28;20061;-68
2023/09/11 05:33:36;;;;;;;11.77;6.90;;;23.00;99.90;;;;;;4160260;28;20036;-66
2023/09/11 05:35:38;;;;;;;10.90;6.57;;;23.00;99.90;;;;;;4155473;28;20041;-67
2023/09/11 05:37:39;;;;;;;11.07;6.68;;;23.00;99.90;;;;;;4158928;28;20501;-67
2023/09/11 05:39:40;;;;;;;10.48;6.90;;;23.00;99.90;;;;;;4151736;28;20030;-65
2023/09/11 05:41:40;;;;;;;9.80;6.90;;;23.00;99.90;;;;;;4143557;28;20565;-65
2023/09/11 05:43:41;;;;;;;9.55;6.30;;;23.00;99.90;;;;;;4143227;28;20034;-67
2023/09/11 05:45:42;;;;;;;12.77;6.50;;;23.00;99.90;;;;;;4147264;28;20446;-65
2023/09/11 05:47:43;;;;;;;11.63;6.55;;;23.00;99.90;;;;;;4139447;28;20517;-66
2023/09/11 05:49:44;;;;;;;12.05;6.13;;;23.00;99.90;;;;;;4146003;28;20029;-67
2023/09/11 05:51:45;;;;;;;11.02;6.55;;;22.90;99.90;;;;;;4158788;28;20045;-66
2023/09/11 05:53:45;;;;;;;10.38;7.05;;;22.90;99.90;;;;;;4156740;28;20021;-66
2023/09/11 05:55:46;;;;;;;11.20;6.32;;;22.90;99.90;;;;;;4145014;28;20037;-66
2023/09/11 05:57:47;;;;;;;11.68;5.80;;;22.90;99.90;;;;;;4125499;28;20049;-66
2023/09/11 05:59:47;;;;;;;10.93;6.18;;;23.00;99.90;;;;;;4145277;28;20167;-65
2023/09/11 06:01:48;;;;;;;7.93;6.25;;;22.90;99.90;;;;;;4149459;28;20029;-65
2023/09/11 06:03:49;;;;;;;8.65;5.80;;;22.90;99.90;;;;;;4140564;28;20042;-65
2023/09/11 06:05:49;;;;;;;21.92;6.88;;;23.00;99.90;;;;;;4139143;28;20113;-65
2023/09/11 06:07:50;;;;;;;11.63;7.03;;;23.00;99.90;;;;;;4144225;28;20030;-65
2023/09/11 06:09:51;;;;;;;11.98;6.38;;;23.00;99.90;;;;;;4142670;28;20042;-64
2023/09/11 06:11:52;;;;;;;12.25;6.65;;;23.00;99.90;;;;;;4143282;28;20073;-65
2023/09/11 06:13:52;;;;;;;10.40;6.75;;;23.00;99.90;;;;;;4140408;28;20081;-64
2023/09/11 06:15:53;;;;;;;12.45;6.28;;;23.00;99.90;;;;;;4137632;28;20064;-65
2023/09/11 06:17:54;;;;;;;17.15;7.15;;;23.00;99.90;;;;;;4132397;28;20026;-65
2023/09/11 06:19:55;;;;;;;10.88;6.50;;;23.00;99.90;;;;;;4131597;28;20053;-65
2023/09/11 06:21:55;;;;;;;13.75;6.53;;;23.10;99.90;;;;;;4143092;28;20418;-66
2023/09/11 06:23:56;;;;;;;9.77;6.25;;;23.10;99.90;;;;;;4143591;28;20735;-66
2023/09/11 06:25:57;;;;;;;11.05;6.60;;;23.30;99.90;;;;;;4118037;28;20396;-66
2023/09/11 06:27:57;;;;;;;14.02;7.45;;;23.40;99.90;;;;;;4127617;28;20443;-69
2023/09/11 06:29:58;;;;;;;8.93;5.97;;;23.60;99.90;;;;;;4135072;28;20382;-66
2023/09/11 06:31:59;;;;;;;13.98;6.30;;;23.80;99.90;;;;;;4127782;28;20086;-65
2023/09/11 06:33:59;;;;;;;11.55;5.93;;;24.00;99.90;;;;;;4142204;28;20030;-65
2023/09/11 06:36:00;;;;;;;10.20;5.65;;;24.10;99.90;;;;;;4141944;28;20041;-65
2023/09/11 06:38:00;;;;;;;11.07;5.68;;;24.30;99.90;;;;;;4159747;28;20026;-65
2023/09/11 06:40:01;;;;;;;11.10;5.93;;;24.50;99.90;;;;;;4150946;28;20088;-69
2023/09/11 06:42:02;;;;;;;12.07;5.90;;;24.70;99.90;;;;;;4126743;28;20512;-68
2023/09/11 06:44:02;;;;;;;12.00;5.70;;;24.90;99.90;;;;;;4154635;28;20037;-68
2023/09/11 06:46:03;;;;;;;8.60;5.03;;;25.10;99.90;;;;;;4142966;28;20038;-69
2023/09/11 06:48:04;;;;;;;17.83;6.90;;;25.20;99.90;;;;;;4155413;28;20038;-68
2023/09/11 06:50:05;;;;;;;9.73;5.95;;;25.30;99.90;;;;;;4144239;28;20493;-67
2023/09/11 06:52:06;;;;;;;18.73;6.82;;;25.50;99.90;;;;;;4144393;28;20112;-66
2023/09/11 06:54:09;;;;;;;11.60;6.35;;;25.60;99.90;;;;;;4146862;28;20490;-66
2023/09/11 06:56:10;;;;;;;13.95;5.75;;;25.70;99.90;;;;;;4135552;28;20042;-65
2023/09/11 06:58:12;;;;;;;12.52;6.07;;;25.80;99.90;;;;;;4130356;28;20443;-65
2023/09/11 07:00:13;;;;;;;14.35;6.10;;;25.90;99.90;;;;;;4145997;28;20076;-65
2023/09/11 07:02:14;;;;;;;10.18;5.15;;;26.00;99.90;;;;;;4148609;28;20460;-65
2023/09/11 07:04:16;;;;;;;11.55;5.90;;;26.10;99.90;;;;;;4145227;28;20043;-65
2023/09/11 07:06:17;;;;;;;12.48;6.40;;;26.30;99.90;;;;;;4139842;28;20034;-65
2023/09/11 07:08:18;;;;;;;10.30;5.90;;;26.30;99.90;;;;;;4133834;28;20049;-65
2023/09/11 07:10:19;;;;;;;11.32;6.22;;;26.40;99.90;;;;;;4139704;28;20502;-65
2023/09/11 07:12:20;;;;;;;14.30;6.55;;;26.40;99.90;;;;;;4159728;28;20033;-65
2023/09/11 07:14:22;;;;;;;12.23;6.35;;;26.60;99.90;;;;;;4143113;28;20172;-65
2023/09/11 07:16:22;;;;;;;15.30;6.10;;;26.60;99.90;;;;;;4142811;28;20033;-65
2023/09/11 07:18:23;;;;;;;8.50;5.70;;;26.60;99.90;;;;;;4140630;28;20113;-66
2023/09/11 07:20:24;;;;;;;9.50;5.55;;;26.70;99.90;;;;;;4140839;28;20654;-65
2023/09/11 07:22:24;;;;;;;10.98;6.35;;;26.80;99.90;;;;;;4157341;28;20502;-65
2023/09/11 07:24:25;;;;;;;9.65;5.05;;;26.70;99.90;;;;;;4152011;28;20028;-65
2023/09/11 07:26:26;;;;;;;8.98;4.80;;;26.80;99.90;;;;;;4147729;28;20337;-65
2023/09/11 07:28:27;;;;;;;13.88;5.38;;;26.90;99.90;;;;;;4160657;28;20073;-65
2023/09/11 07:30:28;;;;;;;14.90;6.35;;;27.00;99.90;;;;;;4144642;28;20030;-65
2023/09/11 07:32:29;;;;;;;12.98;6.03;;;27.10;99.90;;;;;;4144355;28;20037;-69
2023/09/11 07:34:30;;;;;;;13.80;5.30;;;27.20;99.90;;;;;;4141410;28;20045;-65
2023/09/11 07:36:31;;;;;;;12.45;5.30;;;27.30;99.90;;;;;;4143182;28;20030;-65
2023/09/11 07:38:33;;;;;;;8.40;5.65;;;27.40;99.90;;;;;;4128025;28;20033;-65
2023/09/11 07:40:33;;;;;;;8.98;4.65;;;27.60;99.90;;;;;;4123931;28;20550;-65
2023/09/11 07:42:34;;;;;;;8.85;5.05;;;27.70;99.90;;;;;;4136399;28;20030;-66
2023/09/11 07:44:34;;;;;;;10.00;5.07;;;27.80;99.90;;;;;;4143972;28;20709;-65
2023/09/11 07:46:35;;;;;;;8.15;4.50;;;28.00;99.90;;;;;;4139267;28;20042;-65
2023/09/11 07:48:35;;;;;;;11.82;5.13;;;28.10;99.90;;;;;;4136805;28;20034;-65
2023/09/11 07:50:36;;;;;;;7.55;4.55;;;28.10;99.90;;;;;;4138779;28;20026;-65
2023/09/11 07:52:37;;;;;;;10.27;4.85;;;28.20;99.90;;;;;;4131305;28;20543;-65
2023/09/11 07:54:37;;;;;;;12.88;5.18;;;28.30;99.90;;;;;;4128189;28;20395;-65
2023/09/11 07:56:38;;;;;;;11.48;4.63;;;28.40;99.90;;;;;;4139564;28;20380;-65
2023/09/11 07:58:39;;;;;;;9.35;5.47;;;28.50;99.90;;;;;;4127203;28;20082;-65
2023/09/11 08:00:39;;;;;;;8.80;4.65;;;28.50;99.90;;;;;;4131724;28;20038;-66
2023/09/11 08:02:40;;;;;;;8.35;4.75;;;28.60;99.90;;;;;;4142726;28;21990;-65
2023/09/11 08:04:41;;;;;;;11.73;5.20;;;28.70;99.90;;;;;;4141721;28;20030;-66
2023/09/11 08:06:42;;;;;;;13.00;5.38;;;28.60;99.90;;;;;;4144129;28;20128;-67
2023/09/11 08:08:42;;;;;;;13.77;5.45;;;28.80;99.90;;;;;;4142712;28;20399;-68
2023/09/11 08:10:43;;;;;;;10.80;5.20;;;28.80;99.90;;;;;;4143087;28;20030;-66
2023/09/11 08:12:44;;;;;;;8.20;4.47;;;28.90;99.90;;;;;;4144358;28;20040;-66
2023/09/11 08:14:44;;;;;;;12.43;4.85;;;29.00;99.90;;;;;;4144875;28;20483;-66
2023/09/11 08:16:45;;;;;;;9.27;5.13;;;29.10;99.90;;;;;;4143257;28;20615;-66
2023/09/11 08:18:45;;;;;;;7.90;4.18;;;29.10;99.10;;;;;;4142359;28;20068;-68
2023/09/11 08:20:46;;;;;;;8.60;3.83;;;29.20;98.50;;;;;;4139965;28;20065;-65
2023/09/11 08:22:47;;;;;;;5.85;3.83;;;29.20;98.30;;;;;;4136488;28;20538;-67
2023/09/11 08:24:47;;;;;;;8.10;4.00;;;29.30;98.30;;;;;;4134640;28;20438;-68
2023/09/11 08:26:48;;;;;;;8.57;3.67;;;29.40;97.60;;;;;;4137577;28;20045;-66
2023/09/11 08:28:49;;;;;;;8.13;4.15;;;29.40;97.60;;;;;;4138957;28;20526;-67
2023/09/11 08:30:50;;;;;;;6.95;3.78;;;29.50;97.70;;;;;;4137236;28;20530;-66
2023/09/11 08:32:51;;;;;;;7.65;4.07;;;29.50;97.10;;;;;;4140980;28;20446;-66
2023/09/11 08:34:51;;;;;;;6.93;3.58;;;29.50;97.00;;;;;;4140605;28;20054;-66
2023/09/11 08:36:52;;;;;;;7.18;4.03;;;29.60;96.80;;;;;;4140646;28;20037;-66
2023/09/11 08:38:53;;;;;;;8.68;4.18;;;29.60;96.70;;;;;;4132244;28;20033;-66
2023/09/11 08:40:54;;;;;;;4.88;3.65;;;29.60;96.50;;;;;;4140242;28;20868;-66
2023/09/11 08:42:54;;;;;;;6.45;3.35;;;29.60;96.80;;;;;;4141877;28;20163;-65
2023/09/11 08:44:55;;;;;;;7.45;3.95;;;29.60;96.20;;;;;;4141018;28;20487;-66
2023/09/11 08:47:00;;;;;;;7.68;4.30;;;29.70;95.90;;;;;;4140871;28;20395;-66
2023/09/11 08:49:05;;;;;;;4.82;3.42;;;29.70;96.10;;;;;;4139368;28;20038;-66
2023/09/11 08:51:11;;;;;;;13.63;4.65;;;29.70;95.90;;;;;;4137818;28;20499;-65
2023/09/11 08:53:16;;;;;;;9.05;4.07;;;29.70;95.80;;;;;;4141976;28;20029;-66
2023/09/11 08:55:19;;;;;;;9.20;4.20;;;29.80;96.10;;;;;;4138623;28;20122;-65
2023/09/11 08:57:24;;;;;;;7.72;4.53;;;29.80;96.30;;;;;;4136757;28;20045;-66
2023/09/11 08:59:26;;;;;;;8.40;3.65;;;29.80;96.50;;;;;;4139276;28;20072;-65
2023/09/11 09:01:28;;;;;;;8.05;3.90;;;29.90;96.40;;;;;;4139393;28;20049;-66
2023/09/11 09:03:30;;;;;;;11.02;4.30;;;29.90;96.30;;;;;;4142783;28;20034;-65
2023/09/11 09:05:32;;;;;;;8.77;4.47;;;29.90;96.00;;;;;;4135701;28;20092;-66
2023/09/11 09:07:34;;;;;;;6.20;3.53;;;29.90;95.80;;;;;;4139505;28;20037;-66
2023/09/11 09:09:35;;;;;;;9.67;4.80;;;29.90;95.70;;;;;;4138059;28;20064;-66
2023/09/11 09:11:37;;;;;;;7.07;4.20;;;29.90;95.90;;;;;;4142321;28;20398;-68
2023/09/11 09:13:38;;;;;;;5.60;3.88;;;30.00;95.90;;;;;;4146038;28;20394;-65
2023/09/11 09:15:41;;;;;;;8.02;4.50;;;30.00;95.90;;;;;;4142412;28;20396;-65
2023/09/11 09:17:42;;;;;;;8.75;4.57;;;30.00;96.10;;;;;;4137661;28;20034;-65
2023/09/11 09:19:42;;;;;;;7.53;4.45;;;30.00;95.10;;;;;;4143098;28;20037;-66
2023/09/11 09:22:06;;;;;;;5.85;3.72;;;30.00;95.60;;;;;;4142750;28;20061;-65
2023/09/11 09:24:17;;;;;;;6.43;3.70;;;30.10;95.50;;;;;;4136590;28;20034;-66
2023/09/11 09:26:18;;;;;;;7.97;3.90;;;30.00;95.30;;;;;;4135916;28;20109;-66
2023/09/11 09:28:28;;;;;;;7.38;4.55;;;30.00;95.20;;;;;;4141362;28;20522;-67
2023/09/11 09:30:31;;;;;;;9.05;3.97;;;30.00;95.60;;;;;;4138929;28;20046;-65
2023/09/11 09:32:33;;;;;;;10.48;4.40;;;30.10;95.40;;;;;;4141412;28;20048;-65
2023/09/11 09:34:35;;;;;;;10.65;4.35;;;30.10;95.60;;;;;;4140829;28;20053;-66
2023/09/11 09:36:36;;;;;;;7.68;4.88;;;30.10;95.20;;;;;;4133570;28;20387;-65
2023/09/11 09:38:36;;;;;;;7.00;4.30;;;30.10;95.30;;;;;;4137416;28;20065;-66
2023/09/11 09:40:39;;;;;;;4.57;3.47;;;30.10;95.70;;;;;;4136772;28;20038;-66
2023/09/11 09:42:40;;;;;;;10.07;4.13;;;30.10;95.10;;;;;;4140566;28;20148;-65
2023/09/11 09:44:43;;;;;;;6.18;3.88;;;30.10;95.40;;;;;;4140772;28;20159;-67
2023/09/11 09:46:44;;;;;;;7.13;4.40;;;30.20;95.80;;;;;;4138849;28;20028;-66
2023/09/11 09:48:44;;;;;;;6.47;4.15;;;30.20;95.80;;;;;;4141023;28;20390;-67
2023/09/11 09:50:51;;;;;;;7.43;4.00;;;30.20;95.90;;;;;;4140954;28;20068;-68
2023/09/11 09:52:51;;;;;;;9.45;4.88;;;30.30;95.90;;;;;;4144224;28;20038;-66
2023/09/11 09:54:57;;;;;;;12.05;4.45;;;30.30;95.90;;;;;;4143683;28;20042;-66
2023/09/11 09:57:04;;;;;;;10.07;4.18;;;30.30;96.50;;;;;;4138436;28;20577;-66
2023/09/11 09:59:05;;;;;;;9.30;4.13;;;30.30;96.80;;;;;;4142701;28;20026;-66
2023/09/11 10:01:10;;;;;;;5.63;3.78;;;30.30;96.10;;;;;;4153786;28;20030;-65
2023/09/11 10:03:11;;;;;;;7.22;4.00;;;30.30;95.70;;;;;;4143586;28;20029;-65
2023/09/11 10:05:13;;;;;;;9.73;4.57;;;30.40;96.20;;;;;;4142885;28;20546;-66
2023/09/11 10:07:13;;;;;;;8.82;4.15;;;30.40;95.90;;;;;;4142441;28;20452;-65
2023/09/11 10:09:15;;;;;;;7.32;3.75;;;30.40;95.70;;;;;;4132315;28;20033;-65
2023/09/11 10:11:27;;;;;;;5.18;3.47;;;30.40;95.80;;;;;;4147540;28;20042;-65
2023/09/11 10:13:32;;;;;;;8.73;4.05;;;30.50;95.10;;;;;;4139989;28;20117;-65
2023/09/11 10:15:35;;;;;;;7.05;3.30;;;30.50;95.90;;;;;;4139386;28;20088;-65
2023/09/11 10:17:36;;;;;;;8.52;3.20;;;30.50;95.70;;;;;;4141431;28;20053;-66
2023/09/11 10:19:37;;;;;;;9.20;4.05;;;30.60;96.00;;;;;;4139110;28;21206;-69
2023/09/11 10:21:39;;;;;;;9.40;3.90;;;30.60;95.60;;;;;;4140316;28;20041;-72
2023/09/11 10:23:39;;;;;;;7.68;4.00;;;30.60;95.30;;;;;;4140476;28;20037;-72
2023/09/11 10:25:45;;;;;;;8.90;4.63;;;30.70;94.90;;;;;;4139764;28;21034;-73
2023/09/11 10:27:48;;;;;;;9.32;4.20;;;30.60;94.40;;;;;;4142142;28;20042;-73
2023/09/11 10:29:54;;;;;;;12.35;5.03;;;30.60;94.80;;;;;;4141691;28;20069;-66